sensor_id;sensor_type;location;lat;lon;timestamp;P1;durP1;ratioP1;P2;durP2;ratioP2
30743;SDS011;17486;46.738;7.622;2024-01-15T00:02:13;35.88;;;24.42;;
30743;SDS011;17486;46.738;7.622;2024-01-15T00:04:39;37.25;;;24.48;;
30743;SDS011;17486;46.738;7.622;2024-01-15T00:07:05;35.70;;;23.88;;
30743;SDS011;17486;46.738;7.622;2024-01-15T00:09:34;33.20;;;22.98;;
30743;SDS011;17486;46.738;7.622;2024-01-15T00:12:00;39.22;;;24.17;;
30743;SDS011;17486;46.738;7.622;2024-01-15T00:14:26;37.88;;;23.75;;
30743;SDS011;17486;46.738;7.622;2024-01-15T00:16:52;38.30;;;24.38;;
30743;SDS011;17486;46.738;7.622;2024-01-15T00:19:20;35.42;;;24.67;;
30743;SDS011;17486;46.738;7.622;2024-01-15T00:21:46;36.13;;;24.67;;
30743;SDS011;17486;46.738;7.622;2024-01-15T00:24:11;37.55;;;24.90;;
30743;SDS011;17486;46.738;7.622;2024-01-15T00:26:37;40.60;;;26.20;;
30743;SDS011;17486;46.738;7.622;2024-01-15T00:29:02;35.75;;;23.85;;
30743;SDS011;17486;46.738;7.622;2024-01-15T00:31:28;40.25;;;26.23;;
30743;SDS011;17486;46.738;7.622;2024-01-15T00:33:55;39.20;;;24.60;;
30743;SDS011;17486;46.738;7.622;2024-01-15T00:36:20;39.38;;;25.00;;
30743;SDS011;17486;46.738;7.622;2024-01-15T00:38:46;37.70;;;24.25;;
30743;SDS011;17486;46.738;7.622;2024-01-15T00:41:12;37.05;;;25.83;;
30743;SDS011;17486;46.738;7.622;2024-01-15T00:43:38;34.50;;;24.45;;
30743;SDS011;17486;46.738;7.622;2024-01-15T00:46:03;42.05;;;26.15;;
30743;SDS011;17486;46.738;7.622;2024-01-15T00:48:29;35.40;;;24.55;;
30743;SDS011;17486;46.738;7.622;2024-01-15T00:50:54;37.47;;;25.52;;
30743;SDS011;17486;46.738;7.622;2024-01-15T00:53:20;37.95;;;25.63;;
30743;SDS011;17486;46.738;7.622;2024-01-15T00:55:47;38.17;;;26.10;;
30743;SDS011;17486;46.738;7.622;2024-01-15T00:58:13;40.75;;;26.13;;
30743;SDS011;17486;46.738;7.622;2024-01-15T01:00:38;35.28;;;24.75;;
30743;SDS011;17486;46.738;7.622;2024-01-15T01:03:03;36.22;;;24.77;;
30743;SDS011;17486;46.738;7.622;2024-01-15T01:05:29;34.53;;;23.92;;
30743;SDS011;17486;46.738;7.622;2024-01-15T01:07:54;38.13;;;25.17;;
30743;SDS011;17486;46.738;7.622;2024-01-15T01:10:20;39.00;;;24.40;;
30743;SDS011;17486;46.738;7.622;2024-01-15T01:12:45;35.58;;;25.10;;
30743;SDS011;17486;46.738;7.622;2024-01-15T01:15:10;35.42;;;24.10;;
30743;SDS011;17486;46.738;7.622;2024-01-15T01:17:36;39.30;;;25.00;;
30743;SDS011;17486;46.738;7.622;2024-01-15T01:20:01;34.85;;;24.60;;
30743;SDS011;17486;46.738;7.622;2024-01-15T01:22:29;35.28;;;23.77;;
30743;SDS011;17486;46.738;7.622;2024-01-15T01:24:55;36.13;;;23.90;;
30743;SDS011;17486;46.738;7.622;2024-01-15T01:27:20;35.92;;;23.75;;
30743;SDS011;17486;46.738;7.622;2024-01-15T01:29:45;38.15;;;23.55;;
30743;SDS011;17486;46.738;7.622;2024-01-15T01:32:11;38.33;;;24.50;;
30743;SDS011;17486;46.738;7.622;2024-01-15T01:34:39;34.63;;;23.58;;
30743;SDS011;17486;46.738;7.622;2024-01-15T01:37:09;37.55;;;24.38;;
30743;SDS011;17486;46.738;7.622;2024-01-15T01:39:43;36.63;;;24.58;;
30743;SDS011;17486;46.738;7.622;2024-01-15T01:42:09;33.20;;;23.65;;
30743;SDS011;17486;46.738;7.622;2024-01-15T01:44:35;38.13;;;24.50;;
30743;SDS011;17486;46.738;7.622;2024-01-15T01:47:00;37.13;;;25.38;;
30743;SDS011;17486;46.738;7.622;2024-01-15T01:49:29;37.20;;;24.17;;
30743;SDS011;17486;46.738;7.622;2024-01-15T01:51:58;37.15;;;24.42;;
30743;SDS011;17486;46.738;7.622;2024-01-15T01:54:25;37.05;;;25.83;;
30743;SDS011;17486;46.738;7.622;2024-01-15T01:56:54;35.60;;;24.05;;
30743;SDS011;17486;46.738;7.622;2024-01-15T01:59:20;41.65;;;26.60;;
30743;SDS011;17486;46.738;7.622;2024-01-15T02:01:46;38.03;;;25.13;;
30743;SDS011;17486;46.738;7.622;2024-01-15T02:04:13;43.70;;;27.38;;
30743;SDS011;17486;46.738;7.622;2024-01-15T02:06:41;41.08;;;27.23;;
30743;SDS011;17486;46.738;7.622;2024-01-15T02:09:06;40.75;;;26.83;;
30743;SDS011;17486;46.738;7.622;2024-01-15T02:11:33;35.50;;;24.35;;
30743;SDS011;17486;46.738;7.622;2024-01-15T02:13:58;38.28;;;25.48;;
30743;SDS011;17486;46.738;7.622;2024-01-15T02:16:23;37.78;;;25.38;;
30743;SDS011;17486;46.738;7.622;2024-01-15T02:18:49;36.58;;;24.70;;
30743;SDS011;17486;46.738;7.622;2024-01-15T02:21:15;38.08;;;25.25;;
30743;SDS011;17486;46.738;7.622;2024-01-15T02:23:40;38.75;;;24.88;;
30743;SDS011;17486;46.738;7.622;2024-01-15T02:26:06;36.63;;;25.05;;
30743;SDS011;17486;46.738;7.622;2024-01-15T02:28:33;36.13;;;26.08;;
30743;SDS011;17486;46.738;7.622;2024-01-15T02:30:58;38.05;;;26.00;;
30743;SDS011;17486;46.738;7.622;2024-01-15T02:33:24;40.20;;;25.08;;
30743;SDS011;17486;46.738;7.622;2024-01-15T02:35:50;35.80;;;24.10;;
30743;SDS011;17486;46.738;7.622;2024-01-15T02:38:16;38.72;;;25.42;;
30743;SDS011;17486;46.738;7.622;2024-01-15T02:40:42;37.65;;;24.75;;
30743;SDS011;17486;46.738;7.622;2024-01-15T02:43:09;37.08;;;24.75;;
30743;SDS011;17486;46.738;7.622;2024-01-15T02:45:34;35.58;;;24.13;;
30743;SDS011;17486;46.738;7.622;2024-01-15T02:47:59;34.45;;;22.23;;
30743;SDS011;17486;46.738;7.622;2024-01-15T02:50:25;37.05;;;24.55;;
30743;SDS011;17486;46.738;7.622;2024-01-15T02:52:50;37.47;;;24.05;;
30743;SDS011;17486;46.738;7.622;2024-01-15T02:55:16;35.67;;;23.55;;
30743;SDS011;17486;46.738;7.622;2024-01-15T02:57:41;32.72;;;22.10;;
30743;SDS011;17486;46.738;7.622;2024-01-15T03:00:07;37.95;;;23.55;;
30743;SDS011;17486;46.738;7.622;2024-01-15T03:02:32;33.47;;;21.60;;
30743;SDS011;17486;46.738;7.622;2024-01-15T03:05:01;31.35;;;21.02;;
30743;SDS011;17486;46.738;7.622;2024-01-15T03:07:27;31.23;;;21.08;;
30743;SDS011;17486;46.738;7.622;2024-01-15T03:09:53;28.55;;;19.58;;
30743;SDS011;17486;46.738;7.622;2024-01-15T03:12:18;27.65;;;18.65;;
30743;SDS011;17486;46.738;7.622;2024-01-15T03:14:44;28.13;;;18.52;;
30743;SDS011;17486;46.738;7.622;2024-01-15T03:17:09;23.52;;;16.90;;
30743;SDS011;17486;46.738;7.622;2024-01-15T03:19:36;23.52;;;15.40;;
30743;SDS011;17486;46.738;7.622;2024-01-15T03:22:01;20.80;;;14.07;;
30743;SDS011;17486;46.738;7.622;2024-01-15T03:24:28;20.65;;;13.07;;
30743;SDS011;17486;46.738;7.622;2024-01-15T03:26:54;18.38;;;13.38;;
30743;SDS011;17486;46.738;7.622;2024-01-15T03:29:19;18.92;;;12.65;;
30743;SDS011;17486;46.738;7.622;2024-01-15T03:31:44;16.15;;;11.18;;
30743;SDS011;17486;46.738;7.622;2024-01-15T03:34:10;15.07;;;10.77;;
30743;SDS011;17486;46.738;7.622;2024-01-15T03:36:35;16.05;;;12.27;;
30743;SDS011;17486;46.738;7.622;2024-01-15T03:39:01;17.02;;;11.70;;
30743;SDS011;17486;46.738;7.622;2024-01-15T03:41:26;22.25;;;13.57;;
30743;SDS011;17486;46.738;7.622;2024-01-15T03:43:51;18.88;;;12.55;;
30743;SDS011;17486;46.738;7.622;2024-01-15T03:46:17;17.95;;;11.15;;
30743;SDS011;17486;46.738;7.622;2024-01-15T03:48:42;15.02;;;11.43;;
30743;SDS011;17486;46.738;7.622;2024-01-15T03:51:07;15.88;;;11.80;;
30743;SDS011;17486;46.738;7.622;2024-01-15T03:53:33;16.48;;;11.85;;
30743;SDS011;17486;46.738;7.622;2024-01-15T03:55:58;15.82;;;10.50;;
30743;SDS011;17486;46.738;7.622;2024-01-15T03:58:23;15.80;;;10.52;;
30743;SDS011;17486;46.738;7.622;2024-01-15T04:00:49;19.23;;;11.65;;
30743;SDS011;17486;46.738;7.622;2024-01-15T04:03:14;14.50;;;10.35;;
30743;SDS011;17486;46.738;7.622;2024-01-15T04:05:40;17.08;;;11.55;;
30743;SDS011;17486;46.738;7.622;2024-01-15T04:08:05;16.05;;;10.95;;
30743;SDS011;17486;46.738;7.622;2024-01-15T04:10:31;15.73;;;11.10;;
30743;SDS011;17486;46.738;7.622;2024-01-15T04:12:56;15.48;;;11.50;;
30743;SDS011;17486;46.738;7.622;2024-01-15T04:15:24;15.23;;;10.90;;
30743;SDS011;17486;46.738;7.622;2024-01-15T04:17:50;18.75;;;12.40;;
30743;SDS011;17486;46.738;7.622;2024-01-15T04:20:15;17.42;;;11.05;;
30743;SDS011;17486;46.738;7.622;2024-01-15T04:22:40;16.35;;;11.15;;
30743;SDS011;17486;46.738;7.622;2024-01-15T04:25:06;17.17;;;10.90;;
30743;SDS011;17486;46.738;7.622;2024-01-15T04:27:31;15.73;;;10.60;;
30743;SDS011;17486;46.738;7.622;2024-01-15T04:29:57;12.88;;;10.07;;
30743;SDS011;17486;46.738;7.622;2024-01-15T04:32:22;15.77;;;11.18;;
30743;SDS011;17486;46.738;7.622;2024-01-15T04:34:47;13.88;;;10.80;;
30743;SDS011;17486;46.738;7.622;2024-01-15T04:37:13;16.98;;;11.25;;
30743;SDS011;17486;46.738;7.622;2024-01-15T04:39:39;16.13;;;11.13;;
30743;SDS011;17486;46.738;7.622;2024-01-15T04:42:04;15.48;;;11.10;;
30743;SDS011;17486;46.738;7.622;2024-01-15T04:44:30;14.32;;;10.55;;
30743;SDS011;17486;46.738;7.622;2024-01-15T04:46:55;14.65;;;9.93;;
30743;SDS011;17486;46.738;7.622;2024-01-15T04:49:20;15.95;;;11.30;;
30743;SDS011;17486;46.738;7.622;2024-01-15T04:51:46;16.52;;;11.88;;
30743;SDS011;17486;46.738;7.622;2024-01-15T04:54:11;18.35;;;12.32;;
30743;SDS011;17486;46.738;7.622;2024-01-15T04:56:37;15.85;;;12.07;;
30743;SDS011;17486;46.738;7.622;2024-01-15T04:59:02;16.73;;;11.48;;
30743;SDS011;17486;46.738;7.622;2024-01-15T05:01:31;17.45;;;11.98;;
30743;SDS011;17486;46.738;7.622;2024-01-15T05:03:57;18.48;;;12.18;;
30743;SDS011;17486;46.738;7.622;2024-01-15T05:06:22;17.33;;;12.18;;
30743;SDS011;17486;46.738;7.622;2024-01-15T05:08:48;17.08;;;12.48;;
30743;SDS011;17486;46.738;7.622;2024-01-15T05:11:13;18.00;;;12.13;;
30743;SDS011;17486;46.738;7.622;2024-01-15T05:13:38;18.40;;;12.88;;
30743;SDS011;17486;46.738;7.622;2024-01-15T05:16:04;20.52;;;13.00;;
30743;SDS011;17486;46.738;7.622;2024-01-15T05:18:29;19.02;;;13.23;;
30743;SDS011;17486;46.738;7.622;2024-01-15T05:20:55;19.27;;;12.23;;
30743;SDS011;17486;46.738;7.622;2024-01-15T05:23:20;19.13;;;13.23;;
30743;SDS011;17486;46.738;7.622;2024-01-15T05:25:45;19.58;;;13.32;;
30743;SDS011;17486;46.738;7.622;2024-01-15T05:28:11;20.58;;;14.10;;
30743;SDS011;17486;46.738;7.622;2024-01-15T05:30:36;17.63;;;13.07;;
30743;SDS011;17486;46.738;7.622;2024-01-15T05:33:02;19.10;;;13.25;;
30743;SDS011;17486;46.738;7.622;2024-01-15T05:35:28;19.00;;;13.55;;
30743;SDS011;17486;46.738;7.622;2024-01-15T05:37:53;17.52;;;12.68;;
30743;SDS011;17486;46.738;7.622;2024-01-15T05:40:19;20.38;;;13.73;;
30743;SDS011;17486;46.738;7.622;2024-01-15T05:42:44;18.73;;;13.55;;
30743;SDS011;17486;46.738;7.622;2024-01-15T05:45:09;18.85;;;12.95;;
30743;SDS011;17486;46.738;7.622;2024-01-15T05:47:35;18.70;;;11.82;;
30743;SDS011;17486;46.738;7.622;2024-01-15T05:50:00;18.08;;;12.38;;
30743;SDS011;17486;46.738;7.622;2024-01-15T05:52:26;15.65;;;10.32;;
30743;SDS011;17486;46.738;7.622;2024-01-15T05:54:51;14.55;;;10.85;;
30743;SDS011;17486;46.738;7.622;2024-01-15T05:57:17;17.48;;;10.80;;
30743;SDS011;17486;46.738;7.622;2024-01-15T05:59:43;15.13;;;10.50;;
30743;SDS011;17486;46.738;7.622;2024-01-15T06:02:09;18.08;;;11.80;;
30743;SDS011;17486;46.738;7.622;2024-01-15T06:04:35;15.98;;;10.82;;
30743;SDS011;17486;46.738;7.622;2024-01-15T06:07:01;16.17;;;11.63;;
30743;SDS011;17486;46.738;7.622;2024-01-15T06:09:26;15.25;;;11.90;;
30743;SDS011;17486;46.738;7.622;2024-01-15T06:11:52;15.90;;;11.43;;
30743;SDS011;17486;46.738;7.622;2024-01-15T06:14:18;16.05;;;11.13;;
30743;SDS011;17486;46.738;7.622;2024-01-15T06:16:43;16.17;;;11.75;;
30743;SDS011;17486;46.738;7.622;2024-01-15T06:19:08;16.10;;;11.40;;
30743;SDS011;17486;46.738;7.622;2024-01-15T06:21:34;17.98;;;11.82;;
30743;SDS011;17486;46.738;7.622;2024-01-15T06:23:59;14.43;;;9.68;;
30743;SDS011;17486;46.738;7.622;2024-01-15T06:26:24;16.95;;;10.57;;
30743;SDS011;17486;46.738;7.622;2024-01-15T06:28:50;14.18;;;10.85;;
30743;SDS011;17486;46.738;7.622;2024-01-15T06:31:15;14.80;;;9.77;;
30743;SDS011;17486;46.738;7.622;2024-01-15T06:33:41;15.32;;;10.75;;
30743;SDS011;17486;46.738;7.622;2024-01-15T06:36:06;13.75;;;9.50;;
30743;SDS011;17486;46.738;7.622;2024-01-15T06:38:32;12.50;;;8.27;;
30743;SDS011;17486;46.738;7.622;2024-01-15T06:40:57;11.73;;;8.68;;
30743;SDS011;17486;46.738;7.622;2024-01-15T06:43:23;11.70;;;8.25;;
30743;SDS011;17486;46.738;7.622;2024-01-15T06:45:48;9.95;;;7.20;;
30743;SDS011;17486;46.738;7.622;2024-01-15T06:48:14;12.50;;;7.75;;
30743;SDS011;17486;46.738;7.622;2024-01-15T06:50:41;11.77;;;7.80;;
30743;SDS011;17486;46.738;7.622;2024-01-15T06:53:07;13.77;;;7.75;;
30743;SDS011;17486;46.738;7.622;2024-01-15T06:55:33;10.77;;;6.60;;
30743;SDS011;17486;46.738;7.622;2024-01-15T06:57:58;8.68;;;6.97;;
30743;SDS011;17486;46.738;7.622;2024-01-15T07:00:23;12.63;;;8.30;;
30743;SDS011;17486;46.738;7.622;2024-01-15T07:02:49;12.60;;;9.35;;
30743;SDS011;17486;46.738;7.622;2024-01-15T07:05:14;14.50;;;11.05;;
30743;SDS011;17486;46.738;7.622;2024-01-15T07:07:40;16.33;;;12.25;;
30743;SDS011;17486;46.738;7.622;2024-01-15T07:10:06;17.20;;;12.57;;
30743;SDS011;17486;46.738;7.622;2024-01-15T07:12:31;18.02;;;12.60;;
30743;SDS011;17486;46.738;7.622;2024-01-15T07:14:57;15.60;;;11.35;;
30743;SDS011;17486;46.738;7.622;2024-01-15T07:17:23;15.63;;;10.90;;
30743;SDS011;17486;46.738;7.622;2024-01-15T07:19:49;16.95;;;10.63;;
30743;SDS011;17486;46.738;7.622;2024-01-15T07:22:14;12.77;;;8.25;;
30743;SDS011;17486;46.738;7.622;2024-01-15T07:24:42;11.75;;;8.73;;
30743;SDS011;17486;46.738;7.622;2024-01-15T07:27:07;12.65;;;8.35;;
30743;SDS011;17486;46.738;7.622;2024-01-15T07:29:34;12.48;;;8.38;;
30743;SDS011;17486;46.738;7.622;2024-01-15T07:32:01;10.90;;;8.13;;
30743;SDS011;17486;46.738;7.622;2024-01-15T07:34:26;11.63;;;7.32;;
30743;SDS011;17486;46.738;7.622;2024-01-15T07:36:52;10.00;;;7.78;;
30743;SDS011;17486;46.738;7.622;2024-01-15T07:39:17;9.75;;;7.13;;
30743;SDS011;17486;46.738;7.622;2024-01-15T07:41:42;11.95;;;7.05;;
30743;SDS011;17486;46.738;7.622;2024-01-15T07:44:08;13.18;;;6.95;;
30743;SDS011;17486;46.738;7.622;2024-01-15T07:46:33;11.00;;;7.38;;
30743;SDS011;17486;46.738;7.622;2024-01-15T07:48:58;10.90;;;7.53;;
30743;SDS011;17486;46.738;7.622;2024-01-15T07:51:24;11.60;;;7.20;;
30743;SDS011;17486;46.738;7.622;2024-01-15T07:53:50;9.63;;;7.32;;
30743;SDS011;17486;46.738;7.622;2024-01-15T07:56:18;12.18;;;7.40;;
30743;SDS011;17486;46.738;7.622;2024-01-15T07:58:43;9.25;;;7.25;;
30743;SDS011;17486;46.738;7.622;2024-01-15T08:01:09;9.98;;;6.63;;
30743;SDS011;17486;46.738;7.622;2024-01-15T08:03:34;11.23;;;7.03;;
30743;SDS011;17486;46.738;7.622;2024-01-15T08:05:59;10.73;;;6.38;;
30743;SDS011;17486;46.738;7.622;2024-01-15T08:08:25;10.82;;;6.90;;
30743;SDS011;17486;46.738;7.622;2024-01-15T08:10:53;9.80;;;6.50;;
30743;SDS011;17486;46.738;7.622;2024-01-15T08:13:19;9.23;;;6.07;;
30743;SDS011;17486;46.738;7.622;2024-01-15T08:15:45;9.65;;;6.18;;
30743;SDS011;17486;46.738;7.622;2024-01-15T08:18:11;11.45;;;6.65;;
30743;SDS011;17486;46.738;7.622;2024-01-15T08:20:36;11.63;;;7.22;;
30743;SDS011;17486;46.738;7.622;2024-01-15T08:23:02;13.23;;;7.65;;
30743;SDS011;17486;46.738;7.622;2024-01-15T08:25:28;11.60;;;7.00;;
30743;SDS011;17486;46.738;7.622;2024-01-15T08:27:53;12.52;;;7.25;;
30743;SDS011;17486;46.738;7.622;2024-01-15T08:30:18;12.73;;;6.95;;
30743;SDS011;17486;46.738;7.622;2024-01-15T08:32:45;13.65;;;7.47;;
30743;SDS011;17486;46.738;7.622;2024-01-15T08:35:10;10.57;;;6.65;;
30743;SDS011;17486;46.738;7.622;2024-01-15T08:37:36;9.77;;;6.40;;
30743;SDS011;17486;46.738;7.622;2024-01-15T08:40:03;10.52;;;7.55;;
30743;SDS011;17486;46.738;7.622;2024-01-15T08:42:29;12.43;;;6.82;;
30743;SDS011;17486;46.738;7.622;2024-01-15T08:44:55;9.73;;;6.72;;
30743;SDS011;17486;46.738;7.622;2024-01-15T08:47:20;9.50;;;6.65;;
30743;SDS011;17486;46.738;7.622;2024-01-15T08:49:46;11.00;;;6.50;;
30743;SDS011;17486;46.738;7.622;2024-01-15T08:52:11;10.00;;;6.70;;
30743;SDS011;17486;46.738;7.622;2024-01-15T08:54:37;8.88;;;5.90;;
30743;SDS011;17486;46.738;7.622;2024-01-15T08:57:02;10.32;;;6.47;;
30743;SDS011;17486;46.738;7.622;2024-01-15T08:59:28;9.13;;;6.13;;
30743;SDS011;17486;46.738;7.622;2024-01-15T09:01:53;9.15;;;6.18;;
30743;SDS011;17486;46.738;7.622;2024-01-15T09:04:21;6.75;;;5.32;;
30743;SDS011;17486;46.738;7.622;2024-01-15T09:06:47;9.15;;;5.75;;
30743;SDS011;17486;46.738;7.622;2024-01-15T09:09:12;9.07;;;5.43;;
30743;SDS011;17486;46.738;7.622;2024-01-15T09:11:40;9.35;;;6.05;;
30743;SDS011;17486;46.738;7.622;2024-01-15T09:14:06;8.70;;;5.72;;
30743;SDS011;17486;46.738;7.622;2024-01-15T09:16:33;7.05;;;5.45;;
30743;SDS011;17486;46.738;7.622;2024-01-15T09:18:58;8.35;;;5.72;;
30743;SDS011;17486;46.738;7.622;2024-01-15T09:21:23;10.40;;;6.00;;
30743;SDS011;17486;46.738;7.622;2024-01-15T09:23:49;9.77;;;5.78;;
30743;SDS011;17486;46.738;7.622;2024-01-15T09:26:15;9.32;;;5.85;;
30743;SDS011;17486;46.738;7.622;2024-01-15T09:28:41;7.45;;;5.10;;
30743;SDS011;17486;46.738;7.622;2024-01-15T09:31:06;7.55;;;5.10;;
30743;SDS011;17486;46.738;7.622;2024-01-15T09:33:32;6.93;;;5.28;;
30743;SDS011;17486;46.738;7.622;2024-01-15T09:35:57;9.35;;;5.53;;
30743;SDS011;17486;46.738;7.622;2024-01-15T09:38:26;7.85;;;5.57;;
30743;SDS011;17486;46.738;7.622;2024-01-15T09:40:52;7.47;;;5.32;;
30743;SDS011;17486;46.738;7.622;2024-01-15T09:43:17;7.93;;;5.25;;
30743;SDS011;17486;46.738;7.622;2024-01-15T09:45:44;7.60;;;5.47;;
30743;SDS011;17486;46.738;7.622;2024-01-15T09:48:10;6.88;;;5.55;;
30743;SDS011;17486;46.738;7.622;2024-01-15T09:50:35;7.97;;;5.07;;
30743;SDS011;17486;46.738;7.622;2024-01-15T09:53:01;9.45;;;5.40;;
30743;SDS011;17486;46.738;7.622;2024-01-15T09:55:29;7.65;;;5.38;;
30743;SDS011;17486;46.738;7.622;2024-01-15T09:57:54;6.15;;;4.90;;
30743;SDS011;17486;46.738;7.622;2024-01-15T10:00:21;10.43;;;5.47;;
30743;SDS011;17486;46.738;7.622;2024-01-15T10:02:48;6.85;;;5.18;;
30743;SDS011;17486;46.738;7.622;2024-01-15T10:05:14;7.47;;;5.13;;
30743;SDS011;17486;46.738;7.622;2024-01-15T10:07:40;10.65;;;5.80;;
30743;SDS011;17486;46.738;7.622;2024-01-15T10:10:06;8.95;;;5.65;;
30743;SDS011;17486;46.738;7.622;2024-01-15T10:12:32;7.90;;;6.03;;
30743;SDS011;17486;46.738;7.622;2024-01-15T10:14:58;10.02;;;5.78;;
30743;SDS011;17486;46.738;7.622;2024-01-15T10:17:24;8.50;;;5.75;;
30743;SDS011;17486;46.738;7.622;2024-01-15T10:19:52;9.02;;;6.10;;
30743;SDS011;17486;46.738;7.622;2024-01-15T10:22:17;8.65;;;6.05;;
30743;SDS011;17486;46.738;7.622;2024-01-15T10:24:45;7.75;;;5.97;;
30743;SDS011;17486;46.738;7.622;2024-01-15T10:27:11;10.20;;;6.68;;
30743;SDS011;17486;46.738;7.622;2024-01-15T10:29:37;7.22;;;6.13;;
30743;SDS011;17486;46.738;7.622;2024-01-15T10:32:05;9.32;;;6.40;;
30743;SDS011;17486;46.738;7.622;2024-01-15T10:34:33;10.02;;;6.85;;
30743;SDS011;17486;46.738;7.622;2024-01-15T10:36:58;9.00;;;6.80;;
30743;SDS011;17486;46.738;7.622;2024-01-15T10:39:24;9.68;;;6.78;;
30743;SDS011;17486;46.738;7.622;2024-01-15T10:41:50;8.65;;;5.95;;
30743;SDS011;17486;46.738;7.622;2024-01-15T10:44:16;8.40;;;6.65;;
30743;SDS011;17486;46.738;7.622;2024-01-15T10:46:42;7.40;;;5.78;;
30743;SDS011;17486;46.738;7.622;2024-01-15T10:49:08;8.90;;;5.80;;
30743;SDS011;17486;46.738;7.622;2024-01-15T10:51:35;8.50;;;5.50;;
30743;SDS011;17486;46.738;7.622;2024-01-15T10:54:01;7.90;;;5.85;;
30743;SDS011;17486;46.738;7.622;2024-01-15T10:56:27;7.93;;;5.75;;
30743;SDS011;17486;46.738;7.622;2024-01-15T10:58:54;10.88;;;6.30;;
30743;SDS011;17486;46.738;7.622;2024-01-15T11:01:21;9.50;;;6.88;;
30743;SDS011;17486;46.738;7.622;2024-01-15T11:03:47;10.65;;;6.53;;
30743;SDS011;17486;46.738;7.622;2024-01-15T11:06:16;10.18;;;6.50;;
30743;SDS011;17486;46.738;7.622;2024-01-15T11:11:10;10.15;;;6.65;;
30743;SDS011;17486;46.738;7.622;2024-01-15T11:16:05;8.38;;;6.38;;
30743;SDS011;17486;46.738;7.622;2024-01-15T11:19:20;8.00;;;6.43;;
30743;SDS011;17486;46.738;7.622;2024-01-15T11:21:24;8.80;;;6.32;;
30743;SDS011;17486;46.738;7.622;2024-01-15T11:24:00;8.27;;;6.40;;
30743;SDS011;17486;46.738;7.622;2024-01-15T11:29:03;9.68;;;6.38;;
30743;SDS011;17486;46.738;7.622;2024-01-15T11:34:14;10.32;;;6.75;;
30743;SDS011;17486;46.738;7.622;2024-01-15T11:41:57;9.18;;;5.88;;
30743;SDS011;17486;46.738;7.622;2024-01-15T11:44:24;8.43;;;6.18;;
30743;SDS011;17486;46.738;7.622;2024-01-15T11:52:37;6.70;;;5.40;;
30743;SDS011;17486;46.738;7.622;2024-01-15T11:55:22;7.85;;;6.00;;
30743;SDS011;17486;46.738;7.622;2024-01-15T11:58:01;7.88;;;5.90;;
30743;SDS011;17486;46.738;7.622;2024-01-15T12:00:30;8.13;;;5.63;;
30743;SDS011;17486;46.738;7.622;2024-01-15T12:02:56;9.75;;;6.30;;
30743;SDS011;17486;46.738;7.622;2024-01-15T12:05:23;6.95;;;5.35;;
30743;SDS011;17486;46.738;7.622;2024-01-15T12:07:49;6.97;;;5.57;;
30743;SDS011;17486;46.738;7.622;2024-01-15T12:10:19;8.00;;;5.63;;
30743;SDS011;17486;46.738;7.622;2024-01-15T12:12:58;8.50;;;6.00;;
30743;SDS011;17486;46.738;7.622;2024-01-15T12:15:33;8.73;;;5.65;;
30743;SDS011;17486;46.738;7.622;2024-01-15T12:17:59;9.60;;;6.15;;
30743;SDS011;17486;46.738;7.622;2024-01-15T12:20:27;10.05;;;6.15;;
30743;SDS011;17486;46.738;7.622;2024-01-15T12:22:54;9.18;;;6.70;;
30743;SDS011;17486;46.738;7.622;2024-01-15T12:25:22;10.70;;;6.45;;
30743;SDS011;17486;46.738;7.622;2024-01-15T12:27:48;8.70;;;6.40;;
30743;SDS011;17486;46.738;7.622;2024-01-15T12:30:14;10.45;;;6.78;;
30743;SDS011;17486;46.738;7.622;2024-01-15T12:32:43;10.18;;;6.63;;
30743;SDS011;17486;46.738;7.622;2024-01-15T12:35:09;7.60;;;5.57;;
30743;SDS011;17486;46.738;7.622;2024-01-15T12:37:44;8.70;;;6.57;;
30743;SDS011;17486;46.738;7.622;2024-01-15T12:40:13;9.25;;;6.00;;
30743;SDS011;17486;46.738;7.622;2024-01-15T12:42:39;9.00;;;5.93;;
30743;SDS011;17486;46.738;7.622;2024-01-15T12:45:05;8.55;;;6.30;;
30743;SDS011;17486;46.738;7.622;2024-01-15T12:47:32;8.75;;;5.90;;
30743;SDS011;17486;46.738;7.622;2024-01-15T12:49:57;10.25;;;6.78;;
30743;SDS011;17486;46.738;7.622;2024-01-15T12:52:26;9.48;;;6.55;;
30743;SDS011;17486;46.738;7.622;2024-01-15T12:54:52;7.78;;;6.20;;
30743;SDS011;17486;46.738;7.622;2024-01-15T12:57:18;7.20;;;5.78;;
30743;SDS011;17486;46.738;7.622;2024-01-15T12:59:44;7.35;;;5.72;;
30743;SDS011;17486;46.738;7.622;2024-01-15T13:02:10;9.73;;;5.75;;
30743;SDS011;17486;46.738;7.622;2024-01-15T13:04:36;7.32;;;4.85;;
30743;SDS011;17486;46.738;7.622;2024-01-15T13:07:02;6.97;;;5.13;;
30743;SDS011;17486;46.738;7.622;2024-01-15T13:09:28;7.15;;;5.00;;
30743;SDS011;17486;46.738;7.622;2024-01-15T13:11:54;5.75;;;4.60;;
30743;SDS011;17486;46.738;7.622;2024-01-15T13:14:20;6.82;;;4.95;;
30743;SDS011;17486;46.738;7.622;2024-01-15T13:16:46;6.97;;;5.30;;
30743;SDS011;17486;46.738;7.622;2024-01-15T13:19:11;6.70;;;5.25;;
30743;SDS011;17486;46.738;7.622;2024-01-15T13:21:38;7.85;;;4.57;;
30743;SDS011;17486;46.738;7.622;2024-01-15T13:24:04;6.28;;;4.28;;
30743;SDS011;17486;46.738;7.622;2024-01-15T13:26:31;7.00;;;5.53;;
30743;SDS011;17486;46.738;7.622;2024-01-15T13:29:01;6.97;;;5.18;;
30743;SDS011;17486;46.738;7.622;2024-01-15T13:31:27;7.78;;;5.18;;
30743;SDS011;17486;46.738;7.622;2024-01-15T13:33:53;5.82;;;4.78;;
30743;SDS011;17486;46.738;7.622;2024-01-15T13:36:18;5.68;;;4.80;;
30743;SDS011;17486;46.738;7.622;2024-01-15T13:38:43;7.53;;;5.13;;
30743;SDS011;17486;46.738;7.622;2024-01-15T13:41:09;6.53;;;4.25;;
30743;SDS011;17486;46.738;7.622;2024-01-15T13:43:34;5.07;;;4.43;;
30743;SDS011;17486;46.738;7.622;2024-01-15T13:46:00;4.97;;;3.95;;
30743;SDS011;17486;46.738;7.622;2024-01-15T13:48:29;5.40;;;4.05;;
30743;SDS011;17486;46.738;7.622;2024-01-15T13:50:55;5.85;;;4.07;;
30743;SDS011;17486;46.738;7.622;2024-01-15T13:53:20;5.97;;;4.78;;
30743;SDS011;17486;46.738;7.622;2024-01-15T13:55:46;7.13;;;5.22;;
30743;SDS011;17486;46.738;7.622;2024-01-15T13:58:12;5.90;;;4.88;;
30743;SDS011;17486;46.738;7.622;2024-01-15T14:00:38;5.68;;;4.85;;
30743;SDS011;17486;46.738;7.622;2024-01-15T14:03:04;5.60;;;4.55;;
30743;SDS011;17486;46.738;7.622;2024-01-15T14:05:30;5.60;;;4.70;;
30743;SDS011;17486;46.738;7.622;2024-01-15T14:07:55;5.68;;;4.28;;
30743;SDS011;17486;46.738;7.622;2024-01-15T14:10:20;7.13;;;5.40;;
30743;SDS011;17486;46.738;7.622;2024-01-15T14:12:46;7.85;;;5.18;;
30743;SDS011;17486;46.738;7.622;2024-01-15T14:15:11;7.22;;;4.97;;
30743;SDS011;17486;46.738;7.622;2024-01-15T14:17:37;6.95;;;5.25;;
30743;SDS011;17486;46.738;7.622;2024-01-15T14:20:03;7.60;;;5.32;;
30743;SDS011;17486;46.738;7.622;2024-01-15T14:22:30;6.32;;;4.75;;
30743;SDS011;17486;46.738;7.622;2024-01-15T14:24:55;7.75;;;4.78;;
30743;SDS011;17486;46.738;7.622;2024-01-15T14:27:21;6.93;;;4.95;;
30743;SDS011;17486;46.738;7.622;2024-01-15T14:29:46;6.85;;;4.88;;
30743;SDS011;17486;46.738;7.622;2024-01-15T14:32:12;5.43;;;4.43;;
30743;SDS011;17486;46.738;7.622;2024-01-15T14:34:37;6.60;;;4.82;;
30743;SDS011;17486;46.738;7.622;2024-01-15T14:37:02;5.50;;;4.43;;
30743;SDS011;17486;46.738;7.622;2024-01-15T14:39:28;4.70;;;4.20;;
30743;SDS011;17486;46.738;7.622;2024-01-15T14:41:53;5.50;;;3.92;;
30743;SDS011;17486;46.738;7.622;2024-01-15T14:44:19;6.20;;;3.40;;
30743;SDS011;17486;46.738;7.622;2024-01-15T14:46:44;5.15;;;3.92;;
30743;SDS011;17486;46.738;7.622;2024-01-15T14:49:10;4.85;;;4.03;;